sensor_id;sensor_type;location;lat;lon;timestamp;temperature;humidity
47540;DHT22;33280;52.152;21.052;2023-12-20T00:02:19;5.70;99.90
47540;DHT22;33280;52.152;21.052;2023-12-20T00:05:07;5.70;99.90
47540;DHT22;33280;52.152;21.052;2023-12-20T00:07:54;5.70;99.90
47540;DHT22;33280;52.152;21.052;2023-12-20T00:10:42;5.70;99.90
47540;DHT22;33280;52.152;21.052;2023-12-20T00:13:30;5.70;99.90
47540;DHT22;33280;52.152;21.052;2023-12-20T00:16:17;5.70;99.90
47540;DHT22;33280;52.152;21.052;2023-12-20T00:19:05;5.70;99.90
47540;DHT22;33280;52.152;21.052;2023-12-20T00:21:52;5.70;99.90
47540;DHT22;33280;52.152;21.052;2023-12-20T00:24:39;5.80;99.90
47540;DHT22;33280;52.152;21.052;2023-12-20T00:27:27;5.80;99.90
47540;DHT22;33280;52.152;21.052;2023-12-20T00:30:14;5.80;99.90
47540;DHT22;33280;52.152;21.052;2023-12-20T00:33:01;5.80;99.90
47540;DHT22;33280;52.152;21.052;2023-12-20T00:35:49;5.70;99.90
47540;DHT22;33280;52.152;21.052;2023-12-20T00:38:37;5.80;99.90
47540;DHT22;33280;52.152;21.052;2023-12-20T00:41:24;5.80;99.90
47540;DHT22;33280;52.152;21.052;2023-12-20T00:44:11;5.80;99.90
47540;DHT22;33280;52.152;21.052;2023-12-20T00:46:59;5.80;99.90
47540;DHT22;33280;52.152;21.052;2023-12-20T00:49:46;5.80;99.90
47540;DHT22;33280;52.152;21.052;2023-12-20T00:52:33;5.80;99.90
47540;DHT22;33280;52.152;21.052;2023-12-20T00:55:21;5.80;99.90
47540;DHT22;33280;52.152;21.052;2023-12-20T00:58:08;5.80;99.90
47540;DHT22;33280;52.152;21.052;2023-12-20T01:00:55;5.80;99.90
47540;DHT22;33280;52.152;21.052;2023-12-20T01:03:43;5.80;99.90
47540;DHT22;33280;52.152;21.052;2023-12-20T01:06:30;5.80;99.90
47540;DHT22;33280;52.152;21.052;2023-12-20T01:09:17;5.80;99.90
47540;DHT22;33280;52.152;21.052;2023-12-20T01:12:05;5.80;99.90
47540;DHT22;33280;52.152;21.052;2023-12-20T01:14:53;5.80;99.90
47540;DHT22;33280;52.152;21.052;2023-12-20T01:17:40;5.80;99.90
47540;DHT22;33280;52.152;21.052;2023-12-20T01:20:28;5.80;99.90
47540;DHT22;33280;52.152;21.052;2023-12-20T01:23:15;5.80;99.90
47540;DHT22;33280;52.152;21.052;2023-12-20T01:26:03;5.80;99.90
47540;DHT22;33280;52.152;21.052;2023-12-20T01:28:51;5.80;99.90
47540;DHT22;33280;52.152;21.052;2023-12-20T01:31:38;5.80;99.90
47540;DHT22;33280;52.152;21.052;2023-12-20T01:34:26;5.80;99.90
47540;DHT22;33280;52.152;21.052;2023-12-20T01:37:13;5.80;99.90
47540;DHT22;33280;52.152;21.052;2023-12-20T01:40:01;5.80;99.90
47540;DHT22;33280;52.152;21.052;2023-12-20T01:43:04;5.80;99.90
47540;DHT22;33280;52.152;21.052;2023-12-20T01:45:56;5.80;99.90
47540;DHT22;33280;52.152;21.052;2023-12-20T01:48:44;5.80;99.90
47540;DHT22;33280;52.152;21.052;2023-12-20T01:51:32;5.80;99.90
47540;DHT22;33280;52.152;21.052;2023-12-20T01:54:20;5.80;99.90
47540;DHT22;33280;52.152;21.052;2023-12-20T01:57:08;5.80;99.90
47540;DHT22;33280;52.152;21.052;2023-12-20T01:59:55;5.90;99.90
47540;DHT22;33280;52.152;21.052;2023-12-20T02:02:44;5.80;99.90
47540;DHT22;33280;52.152;21.052;2023-12-20T02:05:34;5.80;99.90
47540;DHT22;33280;52.152;21.052;2023-12-20T02:08:22;5.80;99.90
47540;DHT22;33280;52.152;21.052;2023-12-20T02:11:10;5.80;99.90
47540;DHT22;33280;52.152;21.052;2023-12-20T02:13:57;5.80;99.90
47540;DHT22;33280;52.152;21.052;2023-12-20T02:16:45;5.80;99.90
47540;DHT22;33280;52.152;21.052;2023-12-20T02:19:32;5.80;99.90
47540;DHT22;33280;52.152;21.052;2023-12-20T02:22:20;5.80;99.90
47540;DHT22;33280;52.152;21.052;2023-12-20T02:25:07;5.80;99.90
47540;DHT22;33280;52.152;21.052;2023-12-20T02:27:55;5.90;99.90
47540;DHT22;33280;52.152;21.052;2023-12-20T02:30:42;5.80;99.90
47540;DHT22;33280;52.152;21.052;2023-12-20T02:33:30;5.80;99.90
47540;DHT22;33280;52.152;21.052;2023-12-20T02:36:17;5.80;99.90
47540;DHT22;33280;52.152;21.052;2023-12-20T02:39:04;5.80;99.90
47540;DHT22;33280;52.152;21.052;2023-12-20T02:41:52;5.90;99.90
47540;DHT22;33280;52.152;21.052;2023-12-20T02:44:39;5.90;99.90
47540;DHT22;33280;52.152;21.052;2023-12-20T02:47:26;5.80;99.90
47540;DHT22;33280;52.152;21.052;2023-12-20T02:50:14;5.80;99.90
47540;DHT22;33280;52.152;21.052;2023-12-20T02:53:01;5.90;99.90
47540;DHT22;33280;52.152;21.052;2023-12-20T02:55:48;5.80;99.90
47540;DHT22;33280;52.152;21.052;2023-12-20T02:58:35;5.80;99.90
47540;DHT22;33280;52.152;21.052;2023-12-20T03:01:23;5.80;99.90
47540;DHT22;33280;52.152;21.052;2023-12-20T03:04:10;5.80;99.90
47540;DHT22;33280;52.152;21.052;2023-12-20T03:06:58;5.80;99.90
47540;DHT22;33280;52.152;21.052;2023-12-20T03:09:45;5.80;99.90
47540;DHT22;33280;52.152;21.052;2023-12-20T03:12:52;5.80;99.90
47540;DHT22;33280;52.152;21.052;2023-12-20T03:15:40;5.80;99.90
47540;DHT22;33280;52.152;21.052;2023-12-20T03:18:27;5.80;99.90
47540;DHT22;33280;52.152;21.052;2023-12-20T03:21:16;5.80;99.90
47540;DHT22;33280;52.152;21.052;2023-12-20T03:24:03;5.80;99.90
47540;DHT22;33280;52.152;21.052;2023-12-20T03:26:51;5.80;99.90
47540;DHT22;33280;52.152;21.052;2023-12-20T03:29:38;5.80;99.90
47540;DHT22;33280;52.152;21.052;2023-12-20T03:32:25;5.80;99.90
47540;DHT22;33280;52.152;21.052;2023-12-20T03:35:13;5.80;99.90
47540;DHT22;33280;52.152;21.052;2023-12-20T03:38:00;5.80;99.90
47540;DHT22;33280;52.152;21.052;2023-12-20T03:40:47;5.80;99.90
47540;DHT22;33280;52.152;21.052;2023-12-20T03:43:35;5.80;99.90
47540;DHT22;33280;52.152;21.052;2023-12-20T03:46:22;5.70;99.90
47540;DHT22;33280;52.152;21.052;2023-12-20T03:49:09;5.80;99.90
47540;DHT22;33280;52.152;21.052;2023-12-20T03:51:57;5.80;99.90
47540;DHT22;33280;52.152;21.052;2023-12-20T03:54:44;5.80;99.90
47540;DHT22;33280;52.152;21.052;2023-12-20T03:57:31;5.80;99.90
47540;DHT22;33280;52.152;21.052;2023-12-20T04:00:19;5.80;99.90
47540;DHT22;33280;52.152;21.052;2023-12-20T04:03:07;5.80;99.90
47540;DHT22;33280;52.152;21.052;2023-12-20T04:05:54;5.80;99.90
47540;DHT22;33280;52.152;21.052;2023-12-20T04:08:42;5.80;99.90
47540;DHT22;33280;52.152;21.052;2023-12-20T04:11:29;5.70;99.90
47540;DHT22;33280;52.152;21.052;2023-12-20T04:14:16;5.80;99.90
47540;DHT22;33280;52.152;21.052;2023-12-20T04:17:04;5.80;99.90
47540;DHT22;33280;52.152;21.052;2023-12-20T04:19:51;5.70;99.90
47540;DHT22;33280;52.152;21.052;2023-12-20T04:22:39;5.80;99.90
47540;DHT22;33280;52.152;21.052;2023-12-20T04:25:26;5.80;99.90
47540;DHT22;33280;52.152;21.052;2023-12-20T04:28:13;5.80;99.90
47540;DHT22;33280;52.152;21.052;2023-12-20T04:31:01;5.80;99.90
47540;DHT22;33280;52.152;21.052;2023-12-20T04:33:49;5.80;99.90
47540;DHT22;33280;52.152;21.052;2023-12-20T04:36:36;5.80;99.90
47540;DHT22;33280;52.152;21.052;2023-12-20T04:39:23;5.80;99.90
47540;DHT22;33280;52.152;21.052;2023-12-20T04:42:10;5.80;99.90
47540;DHT22;33280;52.152;21.052;2023-12-20T04:44:58;5.80;99.90
47540;DHT22;33280;52.152;21.052;2023-12-20T04:47:45;5.80;99.90
47540;DHT22;33280;52.152;21.052;2023-12-20T04:50:34;5.80;99.90
47540;DHT22;33280;52.152;21.052;2023-12-20T04:53:21;5.80;99.90
47540;DHT22;33280;52.152;21.052;2023-12-20T04:56:10;5.80;99.90
47540;DHT22;33280;52.152;21.052;2023-12-20T04:58:57;5.80;99.90
47540;DHT22;33280;52.152;21.052;2023-12-20T05:01:44;5.90;99.90
47540;DHT22;33280;52.152;21.052;2023-12-20T05:04:32;5.90;99.90
47540;DHT22;33280;52.152;21.052;2023-12-20T05:07:19;5.80;99.90
47540;DHT22;33280;52.152;21.052;2023-12-20T05:10:08;5.80;99.90
47540;DHT22;33280;52.152;21.052;2023-12-20T05:12:56;5.80;99.90
47540;DHT22;33280;52.152;21.052;2023-12-20T05:15:43;5.90;99.90
47540;DHT22;33280;52.152;21.052;2023-12-20T05:18:30;5.80;99.90
47540;DHT22;33280;52.152;21.052;2023-12-20T05:21:18;5.80;99.90
47540;DHT22;33280;52.152;21.052;2023-12-20T05:24:05;5.80;99.90
47540;DHT22;33280;52.152;21.052;2023-12-20T05:26:52;5.90;99.90
47540;DHT22;33280;52.152;21.052;2023-12-20T05:29:40;5.80;99.90
47540;DHT22;33280;52.152;21.052;2023-12-20T05:32:27;5.80;99.90
47540;DHT22;33280;52.152;21.052;2023-12-20T05:35:15;5.80;99.90
47540;DHT22;33280;52.152;21.052;2023-12-20T05:38:02;5.90;99.90
47540;DHT22;33280;52.152;21.052;2023-12-20T05:40:50;5.90;99.90
47540;DHT22;33280;52.152;21.052;2023-12-20T05:43:37;5.80;99.90
47540;DHT22;33280;52.152;21.052;2023-12-20T05:46:25;5.80;99.90
47540;DHT22;33280;52.152;21.052;2023-12-20T05:49:12;5.80;99.90
47540;DHT22;33280;52.152;21.052;2023-12-20T05:52:01;5.80;99.90
47540;DHT22;33280;52.152;21.052;2023-12-20T05:54:48;5.80;99.90
47540;DHT22;33280;52.152;21.052;2023-12-20T05:57:35;5.80;99.90
47540;DHT22;33280;52.152;21.052;2023-12-20T06:00:22;5.80;99.90
47540;DHT22;33280;52.152;21.052;2023-12-20T06:03:10;5.90;99.90
47540;DHT22;33280;52.152;21.052;2023-12-20T06:05:57;5.80;99.90
47540;DHT22;33280;52.152;21.052;2023-12-20T06:08:59;5.80;99.90
47540;DHT22;33280;52.152;21.052;2023-12-20T06:11:46;5.80;99.90
47540;DHT22;33280;52.152;21.052;2023-12-20T06:14:34;5.70;99.90
47540;DHT22;33280;52.152;21.052;2023-12-20T06:17:21;5.70;99.90
47540;DHT22;33280;52.152;21.052;2023-12-20T06:20:09;5.70;99.90
47540;DHT22;33280;52.152;21.052;2023-12-20T06:22:57;5.70;99.90
47540;DHT22;33280;52.152;21.052;2023-12-20T06:25:44;5.80;99.90
47540;DHT22;33280;52.152;21.052;2023-12-20T06:28:32;5.80;99.90
47540;DHT22;33280;52.152;21.052;2023-12-20T06:31:19;5.80;99.90
47540;DHT22;33280;52.152;21.052;2023-12-20T06:34:06;5.80;99.90
47540;DHT22;33280;52.152;21.052;2023-12-20T06:36:54;5.70;99.90
47540;DHT22;33280;52.152;21.052;2023-12-20T06:39:42;5.70;99.90
47540;DHT22;33280;52.152;21.052;2023-12-20T06:42:29;5.70;99.90
47540;DHT22;33280;52.152;21.052;2023-12-20T06:45:22;5.70;99.90
47540;DHT22;33280;52.152;21.052;2023-12-20T06:48:10;5.70;99.90
47540;DHT22;33280;52.152;21.052;2023-12-20T06:51:00;5.70;99.90
47540;DHT22;33280;52.152;21.052;2023-12-20T06:53:49;5.70;99.90
47540;DHT22;33280;52.152;21.052;2023-12-20T06:56:36;5.70;99.90
47540;DHT22;33280;52.152;21.052;2023-12-20T06:59:23;5.70;99.90
47540;DHT22;33280;52.152;21.052;2023-12-20T07:02:11;5.70;99.90
47540;DHT22;33280;52.152;21.052;2023-12-20T07:05:01;5.80;99.90
47540;DHT22;33280;52.152;21.052;2023-12-20T07:07:49;5.80;99.90
47540;DHT22;33280;52.152;21.052;2023-12-20T07:10:36;5.80;99.90
47540;DHT22;33280;52.152;21.052;2023-12-20T07:13:24;5.80;99.90
47540;DHT22;33280;52.152;21.052;2023-12-20T07:16:12;5.80;99.90
47540;DHT22;33280;52.152;21.052;2023-12-20T07:19:00;5.80;99.90
47540;DHT22;33280;52.152;21.052;2023-12-20T07:21:47;5.80;99.90
47540;DHT22;33280;52.152;21.052;2023-12-20T07:24:35;5.80;99.90
47540;DHT22;33280;52.152;21.052;2023-12-20T07:27:22;5.80;99.90
47540;DHT22;33280;52.152;21.052;2023-12-20T07:30:10;5.80;99.90
47540;DHT22;33280;52.152;21.052;2023-12-20T07:32:57;5.70;99.90
47540;DHT22;33280;52.152;21.052;2023-12-20T07:35:45;5.70;99.90
47540;DHT22;33280;52.152;21.052;2023-12-20T07:38:32;5.80;99.90
47540;DHT22;33280;52.152;21.052;2023-12-20T07:41:20;5.80;99.90
47540;DHT22;33280;52.152;21.052;2023-12-20T07:44:08;5.80;99.90
47540;DHT22;33280;52.152;21.052;2023-12-20T07:46:56;5.80;99.90
47540;DHT22;33280;52.152;21.052;2023-12-20T07:49:45;5.80;99.90
47540;DHT22;33280;52.152;21.052;2023-12-20T07:52:32;5.80;99.90
47540;DHT22;33280;52.152;21.052;2023-12-20T07:55:20;5.80;99.90
47540;DHT22;33280;52.152;21.052;2023-12-20T07:58:08;5.80;99.90
47540;DHT22;33280;52.152;21.052;2023-12-20T08:00:56;5.70;99.90
47540;DHT22;33280;52.152;21.052;2023-12-20T08:03:43;5.70;99.90
47540;DHT22;33280;52.152;21.052;2023-12-20T08:06:31;5.70;99.90
47540;DHT22;33280;52.152;21.052;2023-12-20T08:09:18;5.80;99.90
47540;DHT22;33280;52.152;21.052;2023-12-20T08:12:07;5.70;99.90
47540;DHT22;33280;52.152;21.052;2023-12-20T08:14:54;5.70;99.90
47540;DHT22;33280;52.152;21.052;2023-12-20T08:17:42;5.80;99.90
47540;DHT22;33280;52.152;21.052;2023-12-20T08:20:31;5.70;99.90
47540;DHT22;33280;52.152;21.052;2023-12-20T08:23:27;5.80;99.90
47540;DHT22;33280;52.152;21.052;2023-12-20T08:26:19;5.80;99.90
47540;DHT22;33280;52.152;21.052;2023-12-20T08:29:10;5.80;99.90
47540;DHT22;33280;52.152;21.052;2023-12-20T08:31:59;5.70;99.90
47540;DHT22;33280;52.152;21.052;2023-12-20T08:34:47;5.70;99.90
47540;DHT22;33280;52.152;21.052;2023-12-20T08:37:34;5.70;99.90
47540;DHT22;33280;52.152;21.052;2023-12-20T08:40:23;5.80;99.90
47540;DHT22;33280;52.152;21.052;2023-12-20T08:43:10;5.70;99.90
47540;DHT22;33280;52.152;21.052;2023-12-20T08:45:58;5.70;99.90
47540;DHT22;33280;52.152;21.052;2023-12-20T08:48:45;5.70;99.90
47540;DHT22;33280;52.152;21.052;2023-12-20T08:51:33;5.70;99.90
47540;DHT22;33280;52.152;21.052;2023-12-20T08:54:21;5.70;99.90
47540;DHT22;33280;52.152;21.052;2023-12-20T08:57:08;5.60;99.90
47540;DHT22;33280;52.152;21.052;2023-12-20T08:59:56;5.70;99.90
47540;DHT22;33280;52.152;21.052;2023-12-20T09:02:43;5.70;99.90
47540;DHT22;33280;52.152;21.052;2023-12-20T09:05:31;5.70;99.90
47540;DHT22;33280;52.152;21.052;2023-12-20T09:08:18;5.70;99.90
47540;DHT22;33280;52.152;21.052;2023-12-20T09:11:06;5.70;99.90
47540;DHT22;33280;52.152;21.052;2023-12-20T09:13:54;5.70;99.90
47540;DHT22;33280;52.152;21.052;2023-12-20T09:16:41;5.70;99.90
47540;DHT22;33280;52.152;21.052;2023-12-20T09:19:28;5.70;99.90
47540;DHT22;33280;52.152;21.052;2023-12-20T09:22:17;5.70;99.90
47540;DHT22;33280;52.152;21.052;2023-12-20T09:25:05;5.70;99.90
47540;DHT22;33280;52.152;21.052;2023-12-20T09:27:52;5.70;99.90
47540;DHT22;33280;52.152;21.052;2023-12-20T09:30:40;5.70;99.90
47540;DHT22;33280;52.152;21.052;2023-12-20T09:33:28;5.70;99.90
47540;DHT22;33280;52.152;21.052;2023-12-20T09:36:15;5.70;99.90
47540;DHT22;33280;52.152;21.052;2023-12-20T09:39:03;5.70;99.90
47540;DHT22;33280;52.152;21.052;2023-12-20T09:41:58;5.70;99.90
47540;DHT22;33280;52.152;21.052;2023-12-20T09:44:47;5.70;99.90
47540;DHT22;33280;52.152;21.052;2023-12-20T09:47:35;5.70;99.90
47540;DHT22;33280;52.152;21.052;2023-12-20T09:50:22;5.70;99.90
47540;DHT22;33280;52.152;21.052;2023-12-20T09:53:15;5.80;99.90
47540;DHT22;33280;52.152;21.052;2023-12-20T09:56:04;5.70;99.90
47540;DHT22;33280;52.152;21.052;2023-12-20T09:58:52;5.70;99.90
47540;DHT22;33280;52.152;21.052;2023-12-20T10:01:41;5.70;99.90
47540;DHT22;33280;52.152;21.052;2023-12-20T10:04:31;5.70;99.90
47540;DHT22;33280;52.152;21.052;2023-12-20T10:07:19;5.70;99.90
47540;DHT22;33280;52.152;21.052;2023-12-20T10:10:07;5.80;99.90
47540;DHT22;33280;52.152;21.052;2023-12-20T10:13:12;5.80;99.90
47540;DHT22;33280;52.152;21.052;2023-12-20T10:16:00;5.70;99.90
47540;DHT22;33280;52.152;21.052;2023-12-20T10:18:48;5.70;99.90
47540;DHT22;33280;52.152;21.052;2023-12-20T10:21:36;5.80;99.90
47540;DHT22;33280;52.152;21.052;2023-12-20T10:24:23;5.80;99.90
47540;DHT22;33280;52.152;21.052;2023-12-20T10:27:12;5.80;99.90
47540;DHT22;33280;52.152;21.052;2023-12-20T10:29:59;5.70;99.90
47540;DHT22;33280;52.152;21.052;2023-12-20T10:32:47;5.70;99.90
47540;DHT22;33280;52.152;21.052;2023-12-20T10:35:36;5.70;99.90
47540;DHT22;33280;52.152;21.052;2023-12-20T10:38:23;5.70;99.90
47540;DHT22;33280;52.152;21.052;2023-12-20T10:41:12;5.70;99.90
47540;DHT22;33280;52.152;21.052;2023-12-20T10:44:04;5.70;99.90
47540;DHT22;33280;52.152;21.052;2023-12-20T10:46:54;5.80;99.90
47540;DHT22;33280;52.152;21.052;2023-12-20T10:49:46;5.80;99.90
47540;DHT22;33280;52.152;21.052;2023-12-20T10:52:34;5.80;99.90
47540;DHT22;33280;52.152;21.052;2023-12-20T10:55:24;5.80;99.90
47540;DHT22;33280;52.152;21.052;2023-12-20T10:58:16;5.70;99.90
47540;DHT22;33280;52.152;21.052;2023-12-20T11:01:04;5.70;99.90
47540;DHT22;33280;52.152;21.052;2023-12-20T11:03:54;5.80;99.90
47540;DHT22;33280;52.152;21.052;2023-12-20T11:06:52;5.70;99.90
47540;DHT22;33280;52.152;21.052;2023-12-20T11:09:47;5.70;99.90
47540;DHT22;33280;52.152;21.052;2023-12-20T11:12:41;5.70;99.90
47540;DHT22;33280;52.152;21.052;2023-12-20T11:15:31;5.70;99.90
47540;DHT22;33280;52.152;21.052;2023-12-20T11:18:18;5.70;99.90
47540;DHT22;33280;52.152;21.052;2023-12-20T11:21:05;5.70;99.90
47540;DHT22;33280;52.152;21.052;2023-12-20T11:23:53;5.80;99.90
47540;DHT22;33280;52.152;21.052;2023-12-20T11:26:47;5.70;99.90
47540;DHT22;33280;52.152;21.052;2023-12-20T11:29:35;5.70;99.90
47540;DHT22;33280;52.152;21.052;2023-12-20T11:38:02;5.80;99.90
47540;DHT22;33280;52.152;21.052;2023-12-20T11:40:50;5.80;99.90
47540;DHT22;33280;52.152;21.052;2023-12-20T11:43:38;5.80;99.90
47540;DHT22;33280;52.152;21.052;2023-12-20T11:46:26;5.80;99.90
47540;DHT22;33280;52.152;21.052;2023-12-20T11:49:13;5.80;99.90
47540;DHT22;33280;52.152;21.052;2023-12-20T11:52:01;5.80;99.90
47540;DHT22;33280;52.152;21.052;2023-12-20T11:54:48;5.70;99.90
47540;DHT22;33280;52.152;21.052;2023-12-20T11:57:36;5.70;99.90
47540;DHT22;33280;52.152;21.052;2023-12-20T12:00:24;5.80;99.90
47540;DHT22;33280;52.152;21.052;2023-12-20T12:03:15;5.70;99.90
47540;DHT22;33280;52.152;21.052;2023-12-20T12:06:03;5.70;99.90
47540;DHT22;33280;52.152;21.052;2023-12-20T12:08:52;5.70;99.90
47540;DHT22;33280;52.152;21.052;2023-12-20T12:11:40;5.70;99.90
47540;DHT22;33280;52.152;21.052;2023-12-20T12:14:27;5.70;99.90
47540;DHT22;33280;52.152;21.052;2023-12-20T12:17:15;5.70;99.90
47540;DHT22;33280;52.152;21.052;2023-12-20T12:20:05;5.70;99.90
47540;DHT22;33280;52.152;21.052;2023-12-20T12:23:04;5.70;99.90
47540;DHT22;33280;52.152;21.052;2023-12-20T12:25:52;5.60;99.90
47540;DHT22;33280;52.152;21.052;2023-12-20T12:28:42;5.60;99.90
47540;DHT22;33280;52.152;21.052;2023-12-20T12:31:30;5.60;99.90
47540;DHT22;33280;52.152;21.052;2023-12-20T12:34:18;5.60;99.90
47540;DHT22;33280;52.152;21.052;2023-12-20T12:37:06;5.50;99.90
47540;DHT22;33280;52.152;21.052;2023-12-20T12:39:54;5.60;99.90
47540;DHT22;33280;52.152;21.052;2023-12-20T12:42:44;5.60;99.90
47540;DHT22;33280;52.152;21.052;2023-12-20T12:45:32;5.50;99.90
47540;DHT22;33280;52.152;21.052;2023-12-20T12:48:19;5.50;99.90
47540;DHT22;33280;52.152;21.052;2023-12-20T12:51:07;5.50;99.90
47540;DHT22;33280;52.152;21.052;2023-12-20T12:53:59;5.40;99.90
47540;DHT22;33280;52.152;21.052;2023-12-20T12:56:47;5.40;99.90
47540;DHT22;33280;52.152;21.052;2023-12-20T12:59:34;5.40;99.90
47540;DHT22;33280;52.152;21.052;2023-12-20T13:02:27;5.40;99.90
47540;DHT22;33280;52.152;21.052;2023-12-20T13:05:14;5.40;99.90
47540;DHT22;33280;52.152;21.052;2023-12-20T13:08:02;5.40;99.90
47540;DHT22;33280;52.152;21.052;2023-12-20T13:10:49;5.40;99.90
47540;DHT22;33280;52.152;21.052;2023-12-20T13:13:37;5.40;99.90
47540;DHT22;33280;52.152;21.052;2023-12-20T13:16:24;5.30;99.90
47540;DHT22;33280;52.152;21.052;2023-12-20T13:19:12;5.40;99.90
47540;DHT22;33280;52.152;21.052;2023-12-20T13:22:00;5.30;99.90
47540;DHT22;33280;52.152;21.052;2023-12-20T13:24:48;5.30;99.90
47540;DHT22;33280;52.152;21.052;2023-12-20T13:27:36;5.30;99.90
47540;DHT22;33280;52.152;21.052;2023-12-20T13:30:23;5.30;99.90
47540;DHT22;33280;52.152;21.052;2023-12-20T13:33:11;5.30;99.90
47540;DHT22;33280;52.152;21.052;2023-12-20T13:35:58;5.30;99.90
47540;DHT22;33280;52.152;21.052;2023-12-20T13:38:48;5.30;99.90
47540;DHT22;33280;52.152;21.052;2023-12-20T13:41:36;5.40;99.90
47540;DHT22;33280;52.152;21.052;2023-12-20T13:44:23;5.40;99.90
47540;DHT22;33280;52.152;21.052;2023-12-20T13:47:10;5.40;99.90
47540;DHT22;33280;52.152;21.052;2023-12-20T13:49:58;5.40;99.90
47540;DHT22;33280;52.152;21.052;2023-12-20T13:52:46;5.50;99.90
47540;DHT22;33280;52.152;21.052;2023-12-20T13:55:34;5.40;99.90
47540;DHT22;33280;52.152;21.052;2023-12-20T13:58:21;5.40;99.90
47540;DHT22;33280;52.152;21.052;2023-12-20T14:01:10;5.40;99.90
47540;DHT22;33280;52.152;21.052;2023-12-20T14:03:58;5.40;99.90
47540;DHT22;33280;52.152;21.052;2023-12-20T14:06:47;5.30;99.90
47540;DHT22;33280;52.152;21.052;2023-12-20T14:09:34;5.30;99.90
47540;DHT22;33280;52.152;21.052;2023-12-20T14:12:22;5.30;99.90
47540;DHT22;33280;52.152;21.052;2023-12-20T14:15:10;5.40;99.90
47540;DHT22;33280;52.152;21.052;2023-12-20T14:18:00;5.30;99.90
47540;DHT22;33280;52.152;21.052;2023-12-20T14:20:48;5.30;99.90
47540;DHT22;33280;52.152;21.052;2023-12-20T14:23:35;5.30;99.90
47540;DHT22;33280;52.152;21.052;2023-12-20T14:26:23;5.20;99.90
47540;DHT22;33280;52.152;21.052;2023-12-20T14:29:10;5.20;99.90
47540;DHT22;33280;52.152;21.052;2023-12-20T14:31:57;5.20;99.90
47540;DHT22;33280;52.152;21.052;2023-12-20T14:34:45;5.30;99.90
47540;DHT22;33280;52.152;21.052;2023-12-20T14:37:32;5.30;99.90
47540;DHT22;33280;52.152;21.052;2023-12-20T14:40:19;5.20;99.90
47540;DHT22;33280;52.152;21.052;2023-12-20T14:43:07;5.20;99.90
47540;DHT22;33280;52.152;21.052;2023-12-20T14:45:54;5.20;99.90
47540;DHT22;33280;52.152;21.052;2023-12-20T14:48:42;5.20;99.90
47540;DHT22;33280;52.152;21.052;2023-12-20T14:51:29;5.20;99.90
47540;DHT22;33280;52.152;21.052;2023-12-20T14:54:16;5.20;99.90
47540;DHT22;33280;52.152;21.052;2023-12-20T14:57:04;5.20;99.90
47540;DHT22;33280;52.152;21.052;2023-12-20T14:59:52;5.10;99.90
47540;DHT22;33280;52.152;21.052;2023-12-20T15:02:39;5.10;99.90
47540;DHT22;33280;52.152;21.052;2023-12-20T15:05:27;5.10;99.90
47540;DHT22;33280;52.152;21.052;2023-12-20T15:08:15;5.10;99.90
47540;DHT22;33280;52.152;21.052;2023-12-20T15:11:02;5.10;99.90
47540;DHT22;33280;52.152;21.052;2023-12-20T15:13:50;5.10;99.90
47540;DHT22;33280;52.152;21.052;2023-12-20T15:16:42;5.10;99.90
47540;DHT22;33280;52.152;21.052;2023-12-20T15:19:30;5.10;99.90
47540;DHT22;33280;52.152;21.052;2023-12-20T15:22:18;5.10;99.90
47540;DHT22;33280;52.152;21.052;2023-12-20T15:25:06;5.00;99.90
47540;DHT22;33280;52.152;21.052;2023-12-20T15:27:55;5.00;99.90
47540;DHT22;33280;52.152;21.052;2023-12-20T15:30:43;5.00;99.90
47540;DHT22;33280;52.152;21.052;2023-12-20T15:33:31;5.00;99.90
47540;DHT22;33280;52.152;21.052;2023-12-20T15:36:19;5.00;99.90
47540;DHT22;33280;52.152;21.052;2023-12-20T15:39:06;5.00;99.90
47540;DHT22;33280;52.152;21.052;2023-12-20T15:41:56;5.00;99.90
47540;DHT22;33280;52.152;21.052;2023-12-20T15:44:44;5.10;99.90
47540;DHT22;33280;52.152;21.052;2023-12-20T15:47:31;5.00;99.90
47540;DHT22;33280;52.152;21.052;2023-12-20T15:50:19;5.00;99.90
47540;DHT22;33280;52.152;21.052;2023-12-20T15:53:07;5.00;99.90
47540;DHT22;33280;52.152;21.052;2023-12-20T15:55:54;5.00;99.90
47540;DHT22;33280;52.152;21.052;2023-12-20T15:58:42;5.00;99.90
47540;DHT22;33280;52.152;21.052;2023-12-20T16:01:29;5.00;99.90
47540;DHT22;33280;52.152;21.052;2023-12-20T16:04:18;5.00;99.90
47540;DHT22;33280;52.152;21.052;2023-12-20T16:07:05;5.00;99.90
47540;DHT22;33280;52.152;21.052;2023-12-20T16:09:52;5.00;99.90
47540;DHT22;33280;52.152;21.052;2023-12-20T16:12:40;5.10;99.90
47540;DHT22;33280;52.152;21.052;2023-12-20T16:15:27;5.10;99.90
47540;DHT22;33280;52.152;21.052;2023-12-20T16:18:14;5.10;99.90
47540;DHT22;33280;52.152;21.052;2023-12-20T16:21:02;5.10;99.90
47540;DHT22;33280;52.152;21.052;2023-12-20T16:23:50;5.10;99.90
47540;DHT22;33280;52.152;21.052;2023-12-20T16:26:37;5.10;99.90
47540;DHT22;33280;52.152;21.052;2023-12-20T16:29:24;5.10;99.90
47540;DHT22;33280;52.152;21.052;2023-12-20T16:32:12;5.10;99.90
47540;DHT22;33280;52.152;21.052;2023-12-20T16:35:01;5.10;99.90
47540;DHT22;33280;52.152;21.052;2023-12-20T16:37:49;5.20;99.90
47540;DHT22;33280;52.152;21.052;2023-12-20T16:40:36;5.20;99.90
47540;DHT22;33280;52.152;21.052;2023-12-20T16:43:24;5.20;99.90
47540;DHT22;33280;52.152;21.052;2023-12-20T16:46:11;5.20;99.90
47540;DHT22;33280;52.152;21.052;2023-12-20T16:48:59;5.10;99.90
47540;DHT22;33280;52.152;21.052;2023-12-20T16:51:46;5.10;99.90
47540;DHT22;33280;52.152;21.052;2023-12-20T16:54:34;5.20;99.90
47540;DHT22;33280;52.152;21.052;2023-12-20T16:57:21;5.10;99.90
47540;DHT22;33280;52.152;21.052;2023-12-20T17:00:09;5.20;99.90
47540;DHT22;33280;52.152;21.052;2023-12-20T17:02:56;5.20;99.90
47540;DHT22;33280;52.152;21.052;2023-12-20T17:05:44;5.20;99.90
47540;DHT22;33280;52.152;21.052;2023-12-20T17:08:32;5.20;99.90
47540;DHT22;33280;52.152;21.052;2023-12-20T17:11:20;5.20;99.90
47540;DHT22;33280;52.152;21.052;2023-12-20T17:14:08;5.10;99.90
47540;DHT22;33280;52.152;21.052;2023-12-20T17:16:57;5.20;99.90
47540;DHT22;33280;52.152;21.052;2023-12-20T17:19:47;5.20;99.90
47540;DHT22;33280;52.152;21.052;2023-12-20T17:22:34;5.20;99.90
47540;DHT22;33280;52.152;21.052;2023-12-20T17:25:22;5.20;99.90
47540;DHT22;33280;52.152;21.052;2023-12-20T17:28:10;5.10;99.90
47540;DHT22;33280;52.152;21.052;2023-12-20T17:30:57;5.20;99.90
47540;DHT22;33280;52.152;21.052;2023-12-20T17:33:45;5.10;99.90
47540;DHT22;33280;52.152;21.052;2023-12-20T17:36:32;5.20;99.90
47540;DHT22;33280;52.152;21.052;2023-12-20T17:39:20;5.10;99.90
47540;DHT22;33280;52.152;21.052;2023-12-20T17:42:07;5.10;99.90
47540;DHT22;33280;52.152;21.052;2023-12-20T17:44:57;5.10;99.90
47540;DHT22;33280;52.152;21.052;2023-12-20T17:47:44;5.10;99.90